createdAt,value
2023-11-23T00:00:09.911Z,7.80
2023-11-23T00:02:42.647Z,7.80
2023-11-23T00:05:15.237Z,7.80
2023-11-23T00:07:47.244Z,7.70
2023-11-23T00:10:19.390Z,7.70
2023-11-23T00:12:51.309Z,7.60
2023-11-23T00:15:23.373Z,7.40
2023-11-23T00:17:55.526Z,7.40
2023-11-23T00:20:27.577Z,7.50
2023-11-23T00:23:00.410Z,7.50
2023-11-23T00:25:32.447Z,7.40
2023-11-23T00:28:04.683Z,7.50
2023-11-23T00:30:36.807Z,7.40
2023-11-23T00:33:09.869Z,7.30
2023-11-23T00:35:42.810Z,7.20
2023-11-23T00:38:19.809Z,7.20
2023-11-23T00:40:51.932Z,7.20
2023-11-23T00:43:23.980Z,7.20
2023-11-23T00:45:56.439Z,7.10
2023-11-23T00:48:28.996Z,7.10
2023-11-23T00:51:03.209Z,7.00
2023-11-23T00:53:36.454Z,7.10
2023-11-23T00:56:08.510Z,7.10
2023-11-23T00:58:41.055Z,7.20
2023-11-23T01:01:16.694Z,7.10
2023-11-23T01:03:49.012Z,7.10
2023-11-23T01:06:21.169Z,7.10
2023-11-23T01:08:53.485Z,7.10
2023-11-23T01:11:25.641Z,7.10
2023-11-23T01:13:57.666Z,7.20
2023-11-23T01:16:29.609Z,7.30
2023-11-23T01:19:01.624Z,7.20
2023-11-23T01:21:33.559Z,7.10
2023-11-23T01:24:06.128Z,7.10
2023-11-23T01:26:38.316Z,7.00
2023-11-23T01:29:10.357Z,7.00
2023-11-23T01:31:42.345Z,7.00
2023-11-23T01:34:14.499Z,7.00
2023-11-23T01:36:46.513Z,6.90
2023-11-23T01:39:18.682Z,6.80
2023-11-23T01:41:52.014Z,6.90
2023-11-23T01:44:24.069Z,6.90
2023-11-23T01:46:56.159Z,6.90
2023-11-23T01:49:28.776Z,6.80
2023-11-23T01:52:02.815Z,6.70
2023-11-23T01:54:35.844Z,6.70
2023-11-23T01:57:09.168Z,6.70
2023-11-23T01:59:41.352Z,6.60
2023-11-23T02:02:13.435Z,6.60
2023-11-23T02:04:45.356Z,6.50
2023-11-23T02:07:17.624Z,6.60
2023-11-23T02:09:49.682Z,6.50
2023-11-23T02:12:23.267Z,6.50
2023-11-23T02:14:56.052Z,6.50
2023-11-23T02:17:28.168Z,6.40
2023-11-23T02:20:00.388Z,6.40
2023-11-23T02:22:32.583Z,6.40
2023-11-23T02:25:07.712Z,6.40
2023-11-23T02:27:39.960Z,6.40
2023-11-23T02:30:12.648Z,6.50
2023-11-23T02:32:46.925Z,6.50
2023-11-23T02:35:22.307Z,6.50
2023-11-23T02:37:54.433Z,6.50
2023-11-23T02:40:26.714Z,6.50
2023-11-23T02:42:58.699Z,6.50
2023-11-23T02:45:30.676Z,6.40
2023-11-23T02:48:04.992Z,6.40
2023-11-23T02:50:37.378Z,6.40
2023-11-23T02:53:18.277Z,6.40
2023-11-23T02:55:50.237Z,6.40
2023-11-23T02:58:23.029Z,6.40
2023-11-23T03:00:55.103Z,6.40
2023-11-23T03:03:27.680Z,6.40
2023-11-23T03:06:00.893Z,6.40
2023-11-23T03:08:33.531Z,6.30
2023-11-23T03:11:05.896Z,6.20
2023-11-23T03:13:37.907Z,6.20
2023-11-23T03:16:09.960Z,6.10
2023-11-23T03:18:41.994Z,6.00
2023-11-23T03:21:14.130Z,6.00
2023-11-23T03:23:46.772Z,6.00
2023-11-23T03:26:19.243Z,6.00
2023-11-23T03:28:51.217Z,6.00
2023-11-23T03:31:23.263Z,6.10
2023-11-23T03:33:55.208Z,6.20
2023-11-23T03:36:27.163Z,6.20
2023-11-23T03:38:59.201Z,6.10
2023-11-23T03:41:31.212Z,6.00
2023-11-23T03:44:03.322Z,5.90
2023-11-23T03:46:35.376Z,5.80
2023-11-23T03:49:07.794Z,5.70
2023-11-23T03:51:39.737Z,5.80
2023-11-23T03:54:11.784Z,5.80
2023-11-23T03:56:43.780Z,5.90
2023-11-23T03:59:15.831Z,5.90
2023-11-23T04:01:49.032Z,5.90
2023-11-23T04:04:21.218Z,5.90
2023-11-23T04:06:53.115Z,6.00
2023-11-23T04:09:25.691Z,5.90
2023-11-23T04:11:57.801Z,5.80
2023-11-23T04:14:32.045Z,5.90
2023-11-23T04:17:04.171Z,5.80
2023-11-23T04:19:36.272Z,5.80
2023-11-23T04:22:08.656Z,5.80
2023-11-23T04:24:42.341Z,5.70
2023-11-23T04:27:14.567Z,5.70
2023-11-23T04:29:47.447Z,5.80
2023-11-23T04:32:19.475Z,5.80
2023-11-23T04:34:51.417Z,5.80
2023-11-23T04:37:25.411Z,6.00
2023-11-23T04:39:57.588Z,6.00
2023-11-23T04:42:29.567Z,6.00
2023-11-23T04:45:01.661Z,6.00
2023-11-23T04:47:33.711Z,5.90
2023-11-23T04:50:06.238Z,5.90
2023-11-23T04:52:38.338Z,5.90
2023-11-23T04:55:10.391Z,5.90
2023-11-23T04:57:42.338Z,5.80
2023-11-23T05:00:15.124Z,5.80
2023-11-23T05:02:47.184Z,5.90
2023-11-23T05:05:19.216Z,6.00
2023-11-23T05:07:51.420Z,6.00
2023-11-23T05:10:23.438Z,5.90
2023-11-23T05:12:55.458Z,5.90
2023-11-23T05:15:27.609Z,5.90
2023-11-23T05:17:59.705Z,5.80
2023-11-23T05:20:31.772Z,5.80
2023-11-23T05:23:03.942Z,5.70
2023-11-23T05:25:36.022Z,5.60
2023-11-23T05:28:08.012Z,5.60
2023-11-23T05:30:40.735Z,5.50
2023-11-23T05:33:13.395Z,5.60
2023-11-23T05:35:45.569Z,5.60
2023-11-23T05:38:17.525Z,5.70
2023-11-23T05:40:50.334Z,5.60
2023-11-23T05:43:23.388Z,5.60
2023-11-23T05:45:55.424Z,5.50
2023-11-23T05:48:27.845Z,5.50
2023-11-23T05:51:00.012Z,5.60
2023-11-23T05:53:32.033Z,5.50
2023-11-23T05:56:05.308Z,5.50
2023-11-23T05:58:37.363Z,5.50
2023-11-23T06:01:12.411Z,5.40
2023-11-23T06:03:44.969Z,5.30
2023-11-23T06:06:24.141Z,5.40
2023-11-23T06:08:56.266Z,5.40
2023-11-23T06:11:28.584Z,5.40
2023-11-23T06:14:00.770Z,5.40
2023-11-23T06:16:32.885Z,5.40
2023-11-23T06:19:05.385Z,5.40
2023-11-23T06:21:37.384Z,5.30
2023-11-23T06:24:09.720Z,5.40
2023-11-23T06:26:41.698Z,5.40
2023-11-23T06:29:14.316Z,5.50
2023-11-23T06:31:46.456Z,5.40
2023-11-23T06:34:18.631Z,5.50
2023-11-23T06:36:51.808Z,5.40
2023-11-23T06:39:26.733Z,5.40
2023-11-23T06:41:58.835Z,5.40
2023-11-23T06:44:30.899Z,5.40
2023-11-23T06:47:03.102Z,5.40
2023-11-23T06:49:36.328Z,5.40
2023-11-23T06:52:08.345Z,5.90
2023-11-23T06:54:40.252Z,6.50
2023-11-23T06:57:13.401Z,7.20
2023-11-23T06:59:46.218Z,7.70
2023-11-23T07:02:18.598Z,8.30
2023-11-23T07:04:50.763Z,8.70
2023-11-23T07:07:22.706Z,8.90
2023-11-23T07:09:54.693Z,9.10
2023-11-23T07:12:27.824Z,9.20
2023-11-23T07:15:00.546Z,9.30
2023-11-23T07:17:32.611Z,9.50
2023-11-23T07:20:06.406Z,9.80
2023-11-23T07:22:39.671Z,9.90
2023-11-23T07:25:11.993Z,9.90
2023-11-23T07:27:44.150Z,9.90
2023-11-23T07:30:16.441Z,10.10
2023-11-23T07:32:48.503Z,10.20
2023-11-23T07:35:20.566Z,10.30
2023-11-23T07:37:52.609Z,10.10
2023-11-23T07:40:24.751Z,10.20
2023-11-23T07:42:57.111Z,10.70
2023-11-23T07:45:29.097Z,11.10
2023-11-23T07:48:01.336Z,11.30
2023-11-23T07:50:33.288Z,11.50
2023-11-23T07:53:06.041Z,11.40
2023-11-23T07:55:38.284Z,11.30
2023-11-23T07:58:10.450Z,11.60
2023-11-23T08:00:42.514Z,11.70
2023-11-23T08:03:14.896Z,11.90
2023-11-23T08:05:47.257Z,12.20
2023-11-23T08:08:19.249Z,12.50
2023-11-23T08:10:51.281Z,12.60
2023-11-23T08:13:23.277Z,12.70
2023-11-23T08:15:57.761Z,12.70
2023-11-23T08:18:36.748Z,12.70
2023-11-23T08:21:15.529Z,12.40
2023-11-23T08:23:48.571Z,12.20
2023-11-23T08:26:20.591Z,12.30
2023-11-23T08:28:52.761Z,12.50
2023-11-23T08:31:29.528Z,12.70
2023-11-23T08:34:01.676Z,12.70
2023-11-23T08:36:33.668Z,12.70
2023-11-23T08:39:06.375Z,12.90
2023-11-23T08:41:39.712Z,13.20
2023-11-23T08:44:11.669Z,13.60
2023-11-23T08:46:44.332Z,13.90
2023-11-23T08:49:16.625Z,14.00
2023-11-23T08:51:48.538Z,14.30
2023-11-23T08:54:20.551Z,14.40
2023-11-23T08:56:54.491Z,14.40
2023-11-23T08:59:26.533Z,14.50
2023-11-23T09:02:02.479Z,14.60
2023-11-23T09:04:45.136Z,14.80
2023-11-23T09:07:18.039Z,15.00
2023-11-23T09:09:50.754Z,15.30
2023-11-23T09:12:23.203Z,15.40
2023-11-23T09:14:58.284Z,15.20
2023-11-23T09:17:31.815Z,15.00
2023-11-23T09:20:07.211Z,15.00
2023-11-23T09:22:40.232Z,15.00
2023-11-23T09:25:12.697Z,15.20
2023-11-23T09:27:46.196Z,15.10
2023-11-23T09:30:18.393Z,14.70
2023-11-23T09:32:51.041Z,14.70
2023-11-23T09:35:23.645Z,14.50
2023-11-23T09:37:58.972Z,14.90
2023-11-23T09:40:31.550Z,14.70
2023-11-23T09:43:04.036Z,14.80
2023-11-23T09:45:37.298Z,14.80
2023-11-23T09:48:12.100Z,15.00
2023-11-23T09:50:44.280Z,15.40
2023-11-23T09:53:16.825Z,15.70
2023-11-23T09:55:50.048Z,16.00
2023-11-23T09:58:23.170Z,16.00
2023-11-23T10:00:55.188Z,16.30
2023-11-23T10:03:32.369Z,16.10
2023-11-23T10:06:04.517Z,16.00
2023-11-23T10:08:38.379Z,16.10
2023-11-23T10:11:10.349Z,16.10
2023-11-23T10:13:42.500Z,16.30
2023-11-23T10:16:14.617Z,16.70
2023-11-23T10:18:47.542Z,16.80
2023-11-23T10:21:19.465Z,17.50
2023-11-23T10:23:51.476Z,18.80
2023-11-23T10:26:23.400Z,19.40
2023-11-23T10:28:56.050Z,20.60
2023-11-23T10:31:28.042Z,22.50
2023-11-23T10:34:02.070Z,23.00
2023-11-23T10:36:35.867Z,21.40
2023-11-23T10:39:13.934Z,19.60
2023-11-23T10:41:47.785Z,18.20
2023-11-23T10:44:20.231Z,17.40
2023-11-23T10:46:55.024Z,16.70
2023-11-23T10:49:28.250Z,16.30
2023-11-23T10:52:01.376Z,16.10
2023-11-23T10:54:33.363Z,15.80
2023-11-23T10:57:09.065Z,15.60
2023-11-23T10:59:42.965Z,15.10
2023-11-23T11:02:16.050Z,15.10
2023-11-23T11:04:48.076Z,15.10
2023-11-23T11:07:29.123Z,15.10
2023-11-23T11:10:06.659Z,15.10
2023-11-23T11:12:40.140Z,15.00
2023-11-23T11:15:19.475Z,15.00
2023-11-23T11:18:03.080Z,15.00
2023-11-23T11:20:35.722Z,14.90
2023-11-23T11:23:07.810Z,15.00
2023-11-23T11:25:44.427Z,15.00
2023-11-23T11:28:16.670Z,15.00
2023-11-23T11:30:48.904Z,14.80
2023-11-23T11:33:25.479Z,14.70
2023-11-23T11:35:58.262Z,14.70
2023-11-23T11:38:31.065Z,14.60
2023-11-23T11:41:08.229Z,14.60
2023-11-23T11:43:42.002Z,14.70
2023-11-23T11:46:14.029Z,14.60
2023-11-23T11:48:47.283Z,14.50
2023-11-23T11:51:19.666Z,14.60
2023-11-23T11:53:51.697Z,14.60
2023-11-23T11:56:24.526Z,14.50
2023-11-23T11:58:57.077Z,14.50
2023-11-23T12:01:29.213Z,14.40
2023-11-23T12:04:02.057Z,14.30
2023-11-23T12:06:36.255Z,14.30
2023-11-23T12:09:13.582Z,14.40
2023-11-23T12:11:46.099Z,14.40
2023-11-23T12:14:19.175Z,14.40
2023-11-23T12:16:54.243Z,14.40
2023-11-23T12:19:27.826Z,14.50
2023-11-23T12:21:59.978Z,14.60
2023-11-23T12:24:32.054Z,14.60
2023-11-23T12:27:04.515Z,14.60
2023-11-23T12:29:40.270Z,14.50
2023-11-23T12:32:12.272Z,14.50
2023-11-23T12:34:44.578Z,14.50
2023-11-23T12:37:17.351Z,14.40
2023-11-23T12:39:50.911Z,14.40
2023-11-23T12:42:24.347Z,14.30
2023-11-23T12:44:57.556Z,14.30
2023-11-23T12:47:31.405Z,14.20
2023-11-23T12:50:11.358Z,14.30
2023-11-23T12:52:44.025Z,14.40
2023-11-23T12:55:19.403Z,14.40
2023-11-23T12:57:52.303Z,14.30
2023-11-23T13:00:25.898Z,14.20
2023-11-23T13:02:57.959Z,14.30
2023-11-23T13:05:30.879Z,14.20
2023-11-23T13:08:03.451Z,14.10
2023-11-23T13:10:35.603Z,14.10
2023-11-23T13:13:07.679Z,14.30
2023-11-23T13:15:40.080Z,14.30
2023-11-23T13:18:12.351Z,14.30
2023-11-23T13:20:46.349Z,14.30
2023-11-23T13:23:18.737Z,14.30
2023-11-23T13:25:51.150Z,14.30
2023-11-23T13:28:23.120Z,14.40
2023-11-23T13:30:58.195Z,14.40
2023-11-23T13:33:30.903Z,14.40
2023-11-23T13:36:06.200Z,14.40
2023-11-23T13:38:38.307Z,14.50
2023-11-23T13:41:11.541Z,14.50
2023-11-23T13:43:43.924Z,14.50
2023-11-23T13:46:17.082Z,14.50
2023-11-23T13:48:51.338Z,14.50
2023-11-23T13:51:24.754Z,14.50
2023-11-23T13:53:57.739Z,14.40
2023-11-23T13:56:30.302Z,14.40
2023-11-23T13:59:06.592Z,14.40
2023-11-23T14:01:38.720Z,14.30
2023-11-23T14:04:14.502Z,14.30
2023-11-23T14:06:47.056Z,14.30
2023-11-23T14:09:19.462Z,14.30
2023-11-23T14:11:55.724Z,14.30
2023-11-23T14:14:30.022Z,14.20
2023-11-23T14:17:02.242Z,14.10
2023-11-23T14:19:34.181Z,14.10
2023-11-23T14:22:06.103Z,14.00
2023-11-23T14:24:40.084Z,14.00
2023-11-23T14:27:12.141Z,13.90
2023-11-23T14:29:47.279Z,13.90
2023-11-23T14:32:19.241Z,13.90
2023-11-23T14:34:51.231Z,13.80
2023-11-23T14:37:24.517Z,13.70
2023-11-23T14:39:56.562Z,13.60
2023-11-23T14:42:33.685Z,13.40
2023-11-23T14:45:11.748Z,13.20
2023-11-23T14:47:45.650Z,13.20
2023-11-23T14:50:19.492Z,13.00
2023-11-23T14:52:51.784Z,13.00
2023-11-23T14:55:24.188Z,13.00
2023-11-23T14:57:56.710Z,13.00
2023-11-23T15:00:31.244Z,12.90
2023-11-23T15:03:06.458Z,12.80
2023-11-23T15:05:38.533Z,12.70
2023-11-23T15:08:10.560Z,12.70
2023-11-23T15:10:42.767Z,12.60
2023-11-23T15:13:18.641Z,12.60
2023-11-23T15:15:54.801Z,12.40
2023-11-23T15:18:29.605Z,12.30
2023-11-23T15:21:01.923Z,12.30
2023-11-23T15:23:36.295Z,12.20
2023-11-23T15:26:10.886Z,12.20
2023-11-23T15:28:45.449Z,12.20
2023-11-23T15:31:17.716Z,12.20
2023-11-23T15:33:49.912Z,12.10
2023-11-23T15:36:22.183Z,12.00
2023-11-23T15:38:54.290Z,11.70
2023-11-23T15:41:26.262Z,11.60
2023-11-23T15:43:58.300Z,11.40
2023-11-23T15:46:31.534Z,11.30
2023-11-23T15:49:05.783Z,11.10
2023-11-23T15:51:38.026Z,10.80
2023-11-23T15:54:10.534Z,10.60
2023-11-23T15:56:42.521Z,10.40
2023-11-23T15:59:14.708Z,10.30
2023-11-23T16:01:48.368Z,10.30
2023-11-23T16:04:24.186Z,10.20
2023-11-23T16:06:56.611Z,10.10
2023-11-23T16:09:28.840Z,9.90
2023-11-23T16:12:00.870Z,9.90
2023-11-23T16:14:32.958Z,9.90
2023-11-23T16:17:05.034Z,9.80
2023-11-23T16:19:36.977Z,9.80
2023-11-23T16:22:09.010Z,9.80
2023-11-23T16:24:41.157Z,9.70
2023-11-23T16:27:14.787Z,9.60
2023-11-23T16:29:49.342Z,9.50
2023-11-23T16:32:21.383Z,9.60
2023-11-23T16:34:54.534Z,9.50
2023-11-23T16:37:26.619Z,9.40
2023-11-23T16:39:58.769Z,9.30
2023-11-23T16:42:30.757Z,9.30
2023-11-23T16:45:03.903Z,9.20
2023-11-23T16:47:36.263Z,9.20
2023-11-23T16:50:12.112Z,9.10
2023-11-23T16:52:44.281Z,9.00
2023-11-23T16:55:16.570Z,8.90
2023-11-23T16:57:49.020Z,8.90
2023-11-23T17:00:21.487Z,8.80
2023-11-23T17:02:53.936Z,8.90
2023-11-23T17:05:26.464Z,8.80
2023-11-23T17:07:58.462Z,8.70
2023-11-23T17:10:30.874Z,8.70
2023-11-23T17:13:02.850Z,8.60
2023-11-23T17:15:35.153Z,8.50
2023-11-23T17:18:07.636Z,8.40
2023-11-23T17:20:40.702Z,8.50
2023-11-23T17:23:13.443Z,8.60
2023-11-23T17:25:47.367Z,8.50
2023-11-23T17:28:21.928Z,8.50
2023-11-23T17:30:55.971Z,8.40
2023-11-23T17:33:33.803Z,8.50
2023-11-23T17:36:06.701Z,8.40
2023-11-23T17:38:39.458Z,8.50
2023-11-23T17:41:11.565Z,8.50
2023-11-23T17:43:52.123Z,8.60
2023-11-23T17:46:24.179Z,8.60
2023-11-23T17:48:56.285Z,8.70
2023-11-23T17:51:31.304Z,8.60
2023-11-23T17:54:04.867Z,8.50
2023-11-23T17:56:43.008Z,8.30
2023-11-23T17:59:30.531Z,8.30
2023-11-23T18:02:07.312Z,8.20
2023-11-23T18:04:40.139Z,8.20
2023-11-23T18:07:12.137Z,8.20
2023-11-23T18:09:44.266Z,8.20
2023-11-23T18:12:16.283Z,8.10
2023-11-23T18:14:48.371Z,8.00
2023-11-23T18:17:20.412Z,8.00
2023-11-23T18:19:52.949Z,8.00
2023-11-23T18:22:25.203Z,8.00
2023-11-23T18:24:57.163Z,8.10
2023-11-23T18:27:29.147Z,8.00
2023-11-23T18:30:01.752Z,7.90
2023-11-23T18:32:34.125Z,8.00
2023-11-23T18:35:06.261Z,8.00
2023-11-23T18:37:39.283Z,7.90
2023-11-23T18:40:14.441Z,7.90
2023-11-23T18:42:47.617Z,7.90
2023-11-23T18:45:20.426Z,7.90
2023-11-23T18:47:53.585Z,7.90
2023-11-23T18:50:25.740Z,7.80
2023-11-23T18:52:59.589Z,7.90
2023-11-23T18:55:31.580Z,7.90
2023-11-23T18:58:03.599Z,7.80
2023-11-23T19:00:38.544Z,7.90
2023-11-23T19:03:10.782Z,8.00
2023-11-23T19:05:42.856Z,8.10
2023-11-23T19:08:17.632Z,8.10
2023-11-23T19:10:49.812Z,8.10
2023-11-23T19:13:23.072Z,8.00
2023-11-23T19:15:59.364Z,7.80
2023-11-23T19:18:32.130Z,7.70
2023-11-23T19:21:06.828Z,7.70
2023-11-23T19:23:39.163Z,7.80
2023-11-23T19:26:12.996Z,7.80
2023-11-23T19:28:46.381Z,7.80
2023-11-23T19:31:22.311Z,7.80
2023-11-23T19:33:58.730Z,7.60
2023-11-23T19:36:31.927Z,7.60
2023-11-23T19:39:04.601Z,7.70
2023-11-23T19:41:43.956Z,7.60
2023-11-23T19:44:16.981Z,7.60
2023-11-23T19:46:50.651Z,7.60
2023-11-23T19:49:22.991Z,7.70
2023-11-23T19:51:59.985Z,7.80
2023-11-23T19:54:31.872Z,7.90
2023-11-23T19:57:06.575Z,7.90
2023-11-23T19:59:38.982Z,7.80
2023-11-23T20:02:11.512Z,7.70
2023-11-23T20:04:43.588Z,7.50
2023-11-23T20:07:15.753Z,7.50
2023-11-23T20:09:47.757Z,7.40
2023-11-23T20:12:19.760Z,7.30
2023-11-23T20:14:52.924Z,7.30
2023-11-23T20:17:27.347Z,7.20
2023-11-23T20:20:02.500Z,7.20
2023-11-23T20:22:34.612Z,7.10
2023-11-23T20:25:09.950Z,7.00
2023-11-23T20:27:43.047Z,7.10
2023-11-23T20:30:15.480Z,7.20
2023-11-23T20:32:47.483Z,7.10
2023-11-23T20:35:23.947Z,7.10
2023-11-23T20:38:13.951Z,7.10
2023-11-23T20:40:46.142Z,7.00
2023-11-23T20:43:18.185Z,7.00
2023-11-23T20:45:50.390Z,6.90
2023-11-23T20:48:22.419Z,6.80
2023-11-23T20:50:54.519Z,6.70
2023-11-23T20:53:26.503Z,6.90
2023-11-23T20:55:59.270Z,7.00
2023-11-23T20:58:31.394Z,6.80
2023-11-23T21:01:03.756Z,6.70
2023-11-23T21:03:36.299Z,6.70
2023-11-23T21:06:21.325Z,6.70
2023-11-23T21:08:58.784Z,6.70
2023-11-23T21:11:37.102Z,6.60
2023-11-23T21:14:09.065Z,6.60
2023-11-23T21:16:41.563Z,6.50
2023-11-23T21:19:13.716Z,6.40
2023-11-23T21:21:45.987Z,6.40
2023-11-23T21:24:18.432Z,6.40
2023-11-23T21:26:50.578Z,6.30
2023-11-23T21:29:22.578Z,6.40
2023-11-23T21:31:54.949Z,6.20
2023-11-23T21:34:26.976Z,6.30
2023-11-23T21:36:58.969Z,6.30
2023-11-23T21:39:31.007Z,6.30
2023-11-23T21:42:02.981Z,6.20
2023-11-23T21:44:34.868Z,6.20
2023-11-23T21:47:06.984Z,6.10
2023-11-23T21:49:42.973Z,6.10
2023-11-23T21:52:14.978Z,6.00
2023-11-23T21:54:53.613Z,5.90
2023-11-23T21:57:33.507Z,5.90
2023-11-23T22:00:09.410Z,5.90
2023-11-23T22:02:41.790Z,5.90
2023-11-23T22:05:13.758Z,5.90
2023-11-23T22:07:45.831Z,5.80
2023-11-23T22:10:18.276Z,5.80
2023-11-23T22:12:50.323Z,5.70
2023-11-23T22:15:23.949Z,5.60
2023-11-23T22:17:59.644Z,5.60
2023-11-23T22:20:32.222Z,5.70
2023-11-23T22:23:05.316Z,5.70
2023-11-23T22:25:37.706Z,5.80
2023-11-23T22:28:10.284Z,5.90
2023-11-23T22:30:43.747Z,5.90
2023-11-23T22:33:17.340Z,5.90
2023-11-23T22:35:49.576Z,5.80
2023-11-23T22:38:23.950Z,5.90
2023-11-23T22:40:56.300Z,5.90
2023-11-23T22:43:28.522Z,6.00
2023-11-23T22:46:10.742Z,6.00
2023-11-23T22:48:42.975Z,5.90
2023-11-23T22:51:16.055Z,5.90
2023-11-23T22:53:48.073Z,5.90
2023-11-23T22:56:20.073Z,5.90
2023-11-23T22:58:52.070Z,6.00
2023-11-23T23:01:24.968Z,6.00
2023-11-23T23:03:57.137Z,5.90
2023-11-23T23:06:29.423Z,5.70
2023-11-23T23:09:02.786Z,5.60
2023-11-23T23:11:35.290Z,5.50
2023-11-23T23:14:07.947Z,5.50
2023-11-23T23:16:39.922Z,5.50
2023-11-23T23:19:14.737Z,5.60
2023-11-23T23:21:46.746Z,5.50
2023-11-23T23:24:18.781Z,5.50
2023-11-23T23:26:50.788Z,5.60
2023-11-23T23:29:25.885Z,5.60
2023-11-23T23:31:57.903Z,5.60
2023-11-23T23:34:30.068Z,5.70
2023-11-23T23:37:02.086Z,5.80
2023-11-23T23:39:34.042Z,5.90
2023-11-23T23:42:06.280Z,5.90
2023-11-23T23:44:38.672Z,5.80
2023-11-23T23:47:11.958Z,5.80
2023-11-23T23:49:44.433Z,5.80
2023-11-23T23:52:16.603Z,5.80
2023-11-23T23:54:50.168Z,5.70
2023-11-23T23:57:22.333Z,5.70
2023-11-23T23:59:54.305Z,5.70
